Latest Weather Observations for Cato Island

IDQ60801

Issued at 8:32 am EST Friday 21 July 2017 (issued every 30 minutes, with the page automatically refreshed every 10 minutes)

About weather observations | Map of weather stations | Latest weather observations for QLD | Other Formats
Station Details ID: 200601 Name: CATO ISLAND Lat: -23.25 Lon: 155.54 Height: 6.3 m
Data from the previous 72 hours. | See also: Recent months for locations in Queensland
Date/Time
EST
Temp
°C
App
Temp
°C
Dew
Point
°C
Rel
Hum
%
Delta-T
°C
Wind Press
QNH
hPa
Press
MSL
hPa
Rain since
9am
mm
Dir  Spd
km/h
Gust
km/h
Spd
kts
Gust
kts
21/08:30am 20.1 - - - - - 17 24 9 13 1018.2 - -
21/08:00am 20.8 - - - - - 17 20 9 11 1017.9 1017.9 -
21/07:30am 19.5 - - - - - 17 26 9 14 1017.8 - -
21/07:00am 18.8 - - - - - 19 26 10 14 1017.5 1017.5 -
21/06:30am 18.7 - - - - - 19 26 10 14 1017.2 - -
21/06:00am 18.8 - - - - - 11 15 6 8 1017.1 1017.1 -
21/05:30am 17.6 - - - - - 15 24 8 13 1016.7 - -
21/05:00am 17.7 - - - - - 17 24 9 13 1016.4 1016.4 -
21/04:30am 17.8 - - - - - 15 22 8 12 1016.1 - -
21/04:00am 18.1 - - - - - 7 19 4 10 1016.1 1016.1 -
21/03:30am 18.3 - - - - - 17 24 9 13 1016.0 - -
21/03:00am 18.3 - - - - - 20 26 11 14 1016.0 1016.0 -
21/02:30am 17.6 - - - - - 7 13 4 7 1015.8 - -
21/02:00am 17.3 - - - - - 11 17 6 9 1015.8 1015.7 -
21/01:30am 18.0 - - - - - 13 19 7 10 1015.9 - -
21/01:00am 18.1 - - - - - 11 17 6 9 1016.2 1016.2 -
21/12:30am 17.0 - - - - - 13 17 7 9 1016.4 - -
21/12:00am 17.5 - - - - - 11 13 6 7 1016.7 1016.7 -
 
Date/Time
EST
Temp
°C
App
Temp
°C
Dew
Point
°C
Rel
Hum
%
Delta-T
°C
Wind Press
QNH
hPa
Press
MSL
hPa
Rain since
9am
mm
Dir  Spd
km/h
Gust
km/h
Spd
kts
Gust
kts
20/11:30pm 17.8 - - - - - 7 11 4 6 1016.8 - -
20/11:00pm 17.6 - - - - - 6 13 3 7 1016.9 1016.9 -
20/10:30pm 18.0 - - - - - 9 13 5 7 1016.9 - -
20/10:00pm 18.4 - - - - - 11 15 6 8 1017.0 1017.0 -
20/09:30pm 17.9 - - - - - 11 15 6 8 1016.9 - -
20/09:00pm 19.1 - - - - - 13 17 7 9 1016.7 1016.7 -
20/08:30pm 19.1 - - - - - 6 11 3 6 1016.6 - -
20/08:00pm 19.3 - - - - - 13 22 7 12 1016.5 1016.5 -
20/07:30pm 19.0 - - - - - 13 17 7 9 1016.2 - -
20/07:00pm 19.4 - - - - - 15 20 8 11 1016.0 1016.0 -
20/06:30pm 19.6 - - - - - 19 22 10 12 1015.8 - -
20/06:00pm 19.6 - - - - - 17 22 9 12 1015.3 1015.4 -
20/05:30pm 19.7 - - - - - 20 28 11 15 1015.1 - -
20/05:00pm 19.5 - - - - - 19 24 10 13 1015.1 1015.1 -
20/04:30pm 19.8 - - - - - 24 30 13 16 1014.6 - -
20/04:00pm 20.0 - - - - - 26 35 14 19 1014.6 1014.6 -
20/03:30pm 19.9 - - - - - 24 32 13 17 1014.4 - -
20/03:00pm 20.3 - - - - - 26 30 14 16 1014.3 1014.3 -
20/02:30pm 20.2 - - - - - 26 32 14 17 1014.2 - -
20/02:00pm 20.3 - - - - - 26 35 14 19 1014.2 1014.1 -
20/01:30pm 20.4 - - - - - 28 37 15 20 1014.1 - -
20/01:00pm 20.5 - - - - - 30 35 16 19 1014.3 1014.3 -
20/12:30pm 20.5 - - - - - 32 39 17 21 1014.4 - -
20/12:00pm 20.4 - - - - - 30 33 16 18 1015.2 1015.1 -
20/11:30am 20.5 - - - - - 26 35 14 19 1016.1 - -
20/11:00am 20.0 - - - - - 22 28 12 15 1017.0 1016.9 -
20/10:30am 20.8 - - - - - 20 26 11 14 1017.1 - -
20/10:00am 20.0 - - - - - 26 35 14 19 1017.2 1017.2 -
20/09:30am 20.6 - - - - - 24 32 13 17 1017.2 - -
20/09:00am 20.5 - - - - - 24 33 13 18 1017.0 1017.0 -
20/08:30am 19.5 - - - - - 26 35 14 19 1016.8 - -
20/08:00am 19.5 - - - - - 26 32 14 17 1016.4 1016.5 -
20/07:30am 19.6 - - - - - 26 35 14 19 1015.7 - -
20/07:00am 19.2 - - - - - 32 37 17 20 1015.1 1015.1 -
20/06:30am 19.0 - - - - - 24 37 13 20 1015.1 - -
20/06:00am 19.3 - - - - - 35 43 19 23 1014.4 1014.5 -
20/05:30am 19.2 - - - - - 32 43 17 23 1014.6 - -
20/05:00am 19.5 - - - - - 39 46 21 25 1014.0 1014.0 -
20/04:30am 19.2 - - - - - 39 48 21 26 1013.8 - -
20/04:00am 19.2 - - - - - 43 54 23 29 1013.6 1013.6 -
20/03:30am 19.4 - - - - - 44 56 24 30 1013.7 - -
20/03:00am 19.5 - - - - - 46 57 25 31 1013.8 1013.8 -
20/02:30am 19.7 - - - - - 46 57 25 31 1013.8 - -
20/02:00am 20.0 - - - - - 46 59 25 32 1013.7 1013.7 -
20/01:30am 20.0 - - - - - 50 61 27 33 1013.9 - -
20/01:00am 20.4 - - - - - 48 61 26 33 1013.8 1013.8 -
20/12:30am 20.6 - - - - - 50 67 27 36 1013.9 - -
20/12:00am 20.4 - - - - - 43 59 23 32 1014.1 1014.0 -
 
Date/Time
EST
Temp
°C
App
Temp
°C
Dew
Point
°C
Rel
Hum
%
Delta-T
°C
Wind Press
QNH
hPa
Press
MSL
hPa
Rain since
9am
mm
Dir  Spd
km/h
Gust
km/h
Spd
kts
Gust
kts
19/11:30pm 21.0 - - - - - 48 61 26 33 1014.0 - -
19/11:00pm 21.1 - - - - - 50 65 27 35 1014.1 1014.1 -
19/10:30pm 21.4 - - - - - 50 59 27 32 1014.1 - -
19/10:00pm 21.6 - - - - - 56 69 30 37 1014.0 1013.9 -
19/09:30pm 21.8 - - - - - 50 65 27 35 1013.8 - -
19/09:00pm 21.7 - - - - - 50 63 27 34 1013.6 1013.6 -
19/08:30pm 21.5 - - - - - 43 54 23 29 1013.5 - -
19/08:00pm 21.2 - - - - - 41 48 22 26 1013.3 1013.3 -
19/07:30pm 21.3 - - - - - 43 52 23 28 1013.1 - -
19/07:00pm 21.6 - - - - - 44 54 24 29 1012.9 1012.9 -
19/06:30pm 21.5 - - - - - 44 54 24 29 1012.4 - -
19/06:00pm 21.7 - - - - - 46 59 25 32 1011.9 1011.9 -
19/05:30pm 21.9 - - - - - 43 50 23 27 1011.5 - -
19/05:00pm 22.0 - - - - - 43 50 23 27 1011.1 1011.1 -
19/04:30pm 22.4 - - - - - 39 50 21 27 1010.7 - -
19/04:00pm 22.6 - - - - - 41 48 22 26 1010.3 1010.3 -
19/03:30pm 23.0 - - - - - 41 50 22 27 1010.1 - -
19/03:00pm 23.1 - - - - - 46 56 25 30 1009.8 1009.9 -
19/02:30pm 24.9 - - - - - 39 46 21 25 1009.7 - -
19/02:00pm 24.9 - - - - - 37 46 20 25 1009.7 1009.7 -
19/01:30pm 24.3 - - - - - 37 44 20 24 1010.1 - -
19/01:00pm 25.0 - - - - - 37 43 20 23 1010.4 1010.4 -
19/12:30pm 24.9 - - - - - 37 41 20 22 1010.9 - -
19/12:00pm 25.0 - - - - - 35 43 19 23 1011.6 1011.5 -
19/11:30am 24.6 - - - - - 35 43 19 23 1012.2 - -
19/11:00am 23.7 - - - - - 43 52 23 28 1012.7 1012.6 -
19/10:30am 23.4 - - - - - 35 52 19 28 1013.1 - -
19/10:00am 20.8 - - - - - 35 61 19 33 1013.7 1013.8 -
19/09:53am 20.8 - - - - - 35 61 19 33 1013.9 - -
19/09:30am 23.2 - - - - - 44 54 24 29 1013.7 - -
19/09:00am 23.8 - - - - - 50 57 27 31 1013.9 1013.9 -
19/08:30am 23.6 - - - - - 52 63 28 34 1013.7 - -
19/08:00am 23.4 - - - - - 52 61 28 33 1013.8 1013.8 -
19/07:30am 23.4 - - - - - 50 57 27 31 1013.6 - -
19/07:00am 23.1 - - - - - 50 61 27 33 1013.5 1013.6 -
19/06:30am 22.7 - - - - - 48 56 26 30 1013.3 - -
19/06:00am 22.8 - - - - - 48 57 26 31 1013.1 1013.2 -
19/05:30am 22.6 - - - - - 48 54 26 29 1013.2 - -
19/05:00am 22.8 - - - - - 46 52 25 28 1013.3 1013.3 -
19/04:30am 22.5 - - - - - 37 44 20 24 1013.7 - -
19/04:00am 22.3 - - - - - 33 43 18 23 1014.0 1013.9 -
19/03:30am 22.3 - - - - - 35 41 19 22 1014.1 - -
19/03:00am 22.2 - - - - - 30 35 16 19 1014.5 1014.5 -
19/02:30am 22.3 - - - - - 30 35 16 19 1014.8 - -
19/02:00am 22.0 - - - - - 28 33 15 18 1015.2 1015.2 -
19/01:30am 22.1 - - - - - 24 28 13 15 1015.4 - -
19/01:00am 22.2 - - - - - 28 33 15 18 1016.1 1016.1 -
19/12:30am 22.1 - - - - - 22 28 12 15 1016.3 - -
19/12:00am 22.1 - - - - - 20 26 11 14 1016.4 1016.4 -
 
Date/Time
EST
Temp
°C
App
Temp
°C
Dew
Point
°C
Rel
Hum
%
Delta-T
°C
Wind Press
QNH
hPa
Press
MSL
hPa
Rain since
9am
mm
Dir  Spd
km/h
Gust
km/h
Spd
kts
Gust
kts
18/11:30pm 22.1 - - - - - 19 24 10 13 1016.6 - -
18/11:00pm 21.8 - - - - - 19 22 10 12 1016.6 1016.6 -
18/10:30pm 22.0 - - - - - 19 22 10 12 1017.1 - -
18/10:00pm 22.1 - - - - - 17 22 9 12 1017.5 1017.5 -
18/09:30pm 22.0 - - - - - 19 22 10 12 1017.8 - -
18/09:00pm 22.0 - - - - - 19 24 10 13 1017.7 1017.7 -
18/08:30pm 21.7 - - - - - 20 24 11 13 1017.5 - -
18/08:00pm 21.7 - - - - - 20 24 11 13 1017.3 1017.3 -
18/07:30pm 21.7 - - - - - 19 22 10 12 1017.3 - -
18/07:00pm 21.9 - - - - - 19 20 10 11 1017.3 1017.3 -
18/06:30pm 21.9 - - - - - 17 20 9 11 1017.4 - -
18/06:00pm 21.8 - - - - - 19 20 10 11 1017.1 1017.1 -
18/05:30pm 21.7 - - - - - 15 20 8 11 1017.0 - -
18/05:00pm 22.1 - - - - - 15 19 8 10 1016.9 1016.9 -
18/04:30pm 22.5 - - - - - 15 20 8 11 1016.9 - -
18/04:00pm 22.6 - - - - - 19 20 10 11 1016.6 1016.6 -
18/03:30pm 23.1 - - - - - 17 20 9 11 1016.7 - -
18/03:00pm 23.2 - - - - - 17 20 9 11 1016.6 1016.6 -
18/02:30pm 23.8 - - - - - 17 20 9 11 1016.6 - -
18/02:00pm 24.5 - - - - - 17 22 9 12 1016.9 1016.8 -
18/01:30pm 24.0 - - - - - 15 19 8 10 1017.3 - -
18/01:00pm 24.8 - - - - - 15 17 8 9 1017.7 1017.6 -
18/12:30pm 24.5 - - - - - 15 17 8 9 1018.1 - -
18/12:00pm 24.5 - - - - - 13 17 7 9 1018.5 1018.4 -
18/11:30am 24.1 - - - - - 15 19 8 10 1019.0 - -
18/11:00am 24.1 - - - - - 17 20 9 11 1019.4 1019.4 -
18/10:30am 23.9 - - - - - 17 20 9 11 1019.6 - -
18/10:00am 23.6 - - - - - 19 24 10 13 1019.8 1019.8 -
18/09:30am 23.4 - - - - - 19 24 10 13 1020.1 - -
18/09:00am 23.1 - - - - - 19 22 10 12 1020.3 1020.3 -

Other Formats:

Comma delimited format used in spreadsheet applications
http://www.bom.gov.au/fwo/IDQ60801/IDQ60801.94394.axf

JavaScript Object Notation format (JSON) in row-major order
http://www.bom.gov.au/fwo/IDQ60801/IDQ60801.94394.json